sensor_id;sensor_type;location;lat;lon;timestamp;P1;durP1;ratioP1;P2;durP2;ratioP2
819;SDS011;392;48.838;2.322;2024-01-30T00:00:50;14.77;;;13.50;;
819;SDS011;392;48.838;2.322;2024-01-30T00:03:18;14.63;;;13.43;;
819;SDS011;392;48.838;2.322;2024-01-30T00:05:45;14.13;;;12.93;;
819;SDS011;392;48.838;2.322;2024-01-30T00:08:12;13.70;;;12.60;;
819;SDS011;392;48.838;2.322;2024-01-30T00:10:39;15.10;;;13.67;;
819;SDS011;392;48.838;2.322;2024-01-30T00:13:07;14.37;;;13.10;;
819;SDS011;392;48.838;2.322;2024-01-30T00:15:34;13.17;;;11.97;;
819;SDS011;392;48.838;2.322;2024-01-30T00:18:04;13.57;;;12.33;;
819;SDS011;392;48.838;2.322;2024-01-30T00:20:31;13.77;;;12.53;;
819;SDS011;392;48.838;2.322;2024-01-30T00:22:59;13.17;;;12.10;;
819;SDS011;392;48.838;2.322;2024-01-30T00:25:26;13.57;;;12.43;;
819;SDS011;392;48.838;2.322;2024-01-30T00:27:54;14.07;;;12.77;;
819;SDS011;392;48.838;2.322;2024-01-30T00:30:21;14.20;;;12.90;;
819;SDS011;392;48.838;2.322;2024-01-30T00:32:49;14.13;;;12.90;;
819;SDS011;392;48.838;2.322;2024-01-30T00:35:18;15.07;;;13.67;;
819;SDS011;392;48.838;2.322;2024-01-30T00:37:45;14.70;;;13.13;;
819;SDS011;392;48.838;2.322;2024-01-30T00:40:12;12.57;;;11.57;;
819;SDS011;392;48.838;2.322;2024-01-30T00:42:41;13.57;;;12.47;;
819;SDS011;392;48.838;2.322;2024-01-30T00:45:11;13.50;;;12.20;;
819;SDS011;392;48.838;2.322;2024-01-30T00:47:39;14.40;;;13.10;;
819;SDS011;392;48.838;2.322;2024-01-30T00:50:07;14.03;;;12.83;;
819;SDS011;392;48.838;2.322;2024-01-30T00:52:36;15.33;;;13.93;;
819;SDS011;392;48.838;2.322;2024-01-30T00:55:04;14.30;;;13.00;;
819;SDS011;392;48.838;2.322;2024-01-30T00:57:32;13.67;;;12.37;;
819;SDS011;392;48.838;2.322;2024-01-30T00:59:59;13.13;;;11.83;;
819;SDS011;392;48.838;2.322;2024-01-30T01:02:27;13.20;;;12.00;;
819;SDS011;392;48.838;2.322;2024-01-30T01:04:54;13.97;;;12.77;;
819;SDS011;392;48.838;2.322;2024-01-30T01:07:22;13.10;;;12.10;;
819;SDS011;392;48.838;2.322;2024-01-30T01:09:51;13.70;;;12.47;;
819;SDS011;392;48.838;2.322;2024-01-30T01:12:18;13.13;;;12.03;;
819;SDS011;392;48.838;2.322;2024-01-30T01:14:45;13.50;;;12.30;;
819;SDS011;392;48.838;2.322;2024-01-30T01:17:12;13.13;;;12.03;;
819;SDS011;392;48.838;2.322;2024-01-30T01:19:40;12.90;;;11.80;;
819;SDS011;392;48.838;2.322;2024-01-30T01:22:07;12.93;;;11.77;;
819;SDS011;392;48.838;2.322;2024-01-30T01:24:35;13.60;;;12.30;;
819;SDS011;392;48.838;2.322;2024-01-30T01:27:04;13.03;;;11.93;;
819;SDS011;392;48.838;2.322;2024-01-30T01:29:32;12.87;;;11.77;;
819;SDS011;392;48.838;2.322;2024-01-30T01:31:59;13.03;;;11.90;;
819;SDS011;392;48.838;2.322;2024-01-30T01:34:27;13.47;;;12.37;;
819;SDS011;392;48.838;2.322;2024-01-30T01:36:54;13.23;;;12.03;;
819;SDS011;392;48.838;2.322;2024-01-30T01:39:22;13.70;;;12.57;;
819;SDS011;392;48.838;2.322;2024-01-30T01:41:49;13.10;;;11.97;;
819;SDS011;392;48.838;2.322;2024-01-30T01:44:18;13.87;;;12.67;;
819;SDS011;392;48.838;2.322;2024-01-30T01:46:46;14.00;;;12.70;;
819;SDS011;392;48.838;2.322;2024-01-30T01:49:14;12.73;;;11.57;;
819;SDS011;392;48.838;2.322;2024-01-30T01:51:40;12.20;;;11.27;;
819;SDS011;392;48.838;2.322;2024-01-30T01:54:09;12.37;;;11.33;;
819;SDS011;392;48.838;2.322;2024-01-30T01:56:38;12.27;;;11.17;;
819;SDS011;392;48.838;2.322;2024-01-30T01:59:06;12.60;;;11.50;;
819;SDS011;392;48.838;2.322;2024-01-30T02:01:35;12.37;;;11.37;;
819;SDS011;392;48.838;2.322;2024-01-30T02:04:04;12.60;;;11.43;;
819;SDS011;392;48.838;2.322;2024-01-30T02:06:31;12.47;;;11.30;;
819;SDS011;392;48.838;2.322;2024-01-30T02:09:00;12.10;;;11.10;;
819;SDS011;392;48.838;2.322;2024-01-30T02:11:27;12.30;;;11.20;;
819;SDS011;392;48.838;2.322;2024-01-30T02:13:55;12.93;;;11.83;;
819;SDS011;392;48.838;2.322;2024-01-30T02:16:22;11.70;;;10.70;;
819;SDS011;392;48.838;2.322;2024-01-30T02:18:51;11.27;;;10.10;;
819;SDS011;392;48.838;2.322;2024-01-30T02:21:23;11.20;;;10.30;;
819;SDS011;392;48.838;2.322;2024-01-30T02:23:51;11.17;;;10.27;;
819;SDS011;392;48.838;2.322;2024-01-30T02:26:21;11.43;;;10.43;;
819;SDS011;392;48.838;2.322;2024-01-30T02:28:48;11.37;;;10.37;;
819;SDS011;392;48.838;2.322;2024-01-30T02:31:15;10.87;;;9.97;;
819;SDS011;392;48.838;2.322;2024-01-30T02:33:42;11.00;;;10.10;;
819;SDS011;392;48.838;2.322;2024-01-30T02:36:10;10.90;;;10.00;;
819;SDS011;392;48.838;2.322;2024-01-30T02:38:39;11.37;;;10.37;;
819;SDS011;392;48.838;2.322;2024-01-30T02:41:07;10.30;;;9.43;;
819;SDS011;392;48.838;2.322;2024-01-30T02:43:34;10.63;;;9.63;;
819;SDS011;392;48.838;2.322;2024-01-30T02:46:01;11.57;;;10.53;;
819;SDS011;392;48.838;2.322;2024-01-30T02:48:29;11.00;;;9.90;;
819;SDS011;392;48.838;2.322;2024-01-30T02:50:56;9.43;;;8.53;;
819;SDS011;392;48.838;2.322;2024-01-30T02:53:24;10.03;;;9.07;;
819;SDS011;392;48.838;2.322;2024-01-30T02:55:52;10.37;;;9.47;;
819;SDS011;392;48.838;2.322;2024-01-30T02:58:20;10.80;;;9.77;;
819;SDS011;392;48.838;2.322;2024-01-30T03:00:47;10.43;;;9.37;;
819;SDS011;392;48.838;2.322;2024-01-30T03:03:15;10.77;;;9.87;;
819;SDS011;392;48.838;2.322;2024-01-30T03:05:42;10.63;;;9.70;;
819;SDS011;392;48.838;2.322;2024-01-30T03:08:09;9.97;;;9.17;;
819;SDS011;392;48.838;2.322;2024-01-30T03:10:36;8.90;;;8.20;;
819;SDS011;392;48.838;2.322;2024-01-30T03:13:05;9.47;;;8.67;;
819;SDS011;392;48.838;2.322;2024-01-30T03:15:32;9.17;;;8.30;;
819;SDS011;392;48.838;2.322;2024-01-30T03:18:00;9.40;;;8.60;;
819;SDS011;392;48.838;2.322;2024-01-30T03:20:29;8.60;;;7.90;;
819;SDS011;392;48.838;2.322;2024-01-30T03:22:57;9.40;;;8.60;;
819;SDS011;392;48.838;2.322;2024-01-30T03:25:26;9.73;;;8.83;;
819;SDS011;392;48.838;2.322;2024-01-30T03:27:53;10.63;;;9.70;;
819;SDS011;392;48.838;2.322;2024-01-30T03:30:22;10.17;;;9.27;;
819;SDS011;392;48.838;2.322;2024-01-30T03:32:49;11.37;;;9.57;;
819;SDS011;392;48.838;2.322;2024-01-30T03:35:18;9.90;;;9.00;;
819;SDS011;392;48.838;2.322;2024-01-30T03:37:45;9.47;;;8.67;;
819;SDS011;392;48.838;2.322;2024-01-30T03:40:13;8.80;;;8.10;;
819;SDS011;392;48.838;2.322;2024-01-30T03:42:40;9.53;;;8.57;;
819;SDS011;392;48.838;2.322;2024-01-30T03:45:08;9.40;;;8.60;;
819;SDS011;392;48.838;2.322;2024-01-30T03:47:37;9.70;;;8.80;;
819;SDS011;392;48.838;2.322;2024-01-30T03:50:04;10.00;;;9.20;;
819;SDS011;392;48.838;2.322;2024-01-30T03:52:32;10.03;;;9.17;;
819;SDS011;392;48.838;2.322;2024-01-30T03:54:59;9.90;;;9.00;;
819;SDS011;392;48.838;2.322;2024-01-30T03:57:27;9.67;;;8.77;;
819;SDS011;392;48.838;2.322;2024-01-30T03:59:54;10.13;;;9.23;;
819;SDS011;392;48.838;2.322;2024-01-30T04:02:21;12.10;;;9.57;;
819;SDS011;392;48.838;2.322;2024-01-30T04:04:52;9.70;;;8.80;;
819;SDS011;392;48.838;2.322;2024-01-30T04:07:19;9.87;;;9.07;;
819;SDS011;392;48.838;2.322;2024-01-30T04:09:46;11.10;;;10.10;;
819;SDS011;392;48.838;2.322;2024-01-30T04:12:13;9.60;;;8.70;;
819;SDS011;392;48.838;2.322;2024-01-30T04:14:41;8.73;;;7.90;;
819;SDS011;392;48.838;2.322;2024-01-30T04:17:09;9.03;;;8.10;;
819;SDS011;392;48.838;2.322;2024-01-30T04:19:37;8.50;;;7.80;;
819;SDS011;392;48.838;2.322;2024-01-30T04:22:06;9.70;;;8.80;;
819;SDS011;392;48.838;2.322;2024-01-30T04:24:33;9.70;;;8.90;;
819;SDS011;392;48.838;2.322;2024-01-30T04:27:00;9.30;;;8.50;;
819;SDS011;392;48.838;2.322;2024-01-30T04:29:28;10.17;;;9.17;;
819;SDS011;392;48.838;2.322;2024-01-30T04:31:55;9.13;;;8.23;;
819;SDS011;392;48.838;2.322;2024-01-30T04:34:22;9.80;;;8.90;;
819;SDS011;392;48.838;2.322;2024-01-30T04:36:49;9.67;;;8.87;;
819;SDS011;392;48.838;2.322;2024-01-30T04:39:18;10.43;;;9.40;;
819;SDS011;392;48.838;2.322;2024-01-30T04:41:46;10.17;;;9.30;;
819;SDS011;392;48.838;2.322;2024-01-30T04:44:13;12.53;;;11.43;;
819;SDS011;392;48.838;2.322;2024-01-30T04:46:41;14.23;;;12.93;;
819;SDS011;392;48.838;2.322;2024-01-30T04:49:08;13.37;;;12.07;;
819;SDS011;392;48.838;2.322;2024-01-30T04:51:35;12.77;;;11.57;;
819;SDS011;392;48.838;2.322;2024-01-30T04:54:02;14.30;;;13.00;;
819;SDS011;392;48.838;2.322;2024-01-30T04:56:31;13.93;;;12.47;;
819;SDS011;392;48.838;2.322;2024-01-30T04:58:58;14.43;;;13.13;;
819;SDS011;392;48.838;2.322;2024-01-30T05:01:26;13.50;;;12.20;;
819;SDS011;392;48.838;2.322;2024-01-30T05:03:53;13.90;;;12.63;;
819;SDS011;392;48.838;2.322;2024-01-30T05:06:24;12.63;;;11.43;;
819;SDS011;392;48.838;2.322;2024-01-30T05:08:51;14.83;;;12.83;;
819;SDS011;392;48.838;2.322;2024-01-30T05:11:19;13.93;;;12.57;;
819;SDS011;392;48.838;2.322;2024-01-30T05:13:48;13.03;;;11.90;;
819;SDS011;392;48.838;2.322;2024-01-30T05:16:15;12.90;;;11.60;;
819;SDS011;392;48.838;2.322;2024-01-30T05:18:43;12.10;;;10.90;;
819;SDS011;392;48.838;2.322;2024-01-30T05:21:10;10.30;;;9.40;;
819;SDS011;392;48.838;2.322;2024-01-30T05:23:36;10.10;;;9.10;;
819;SDS011;392;48.838;2.322;2024-01-30T05:26:04;9.90;;;9.00;;
819;SDS011;392;48.838;2.322;2024-01-30T05:28:31;9.10;;;8.20;;
819;SDS011;392;48.838;2.322;2024-01-30T05:31:00;8.10;;;7.37;;
819;SDS011;392;48.838;2.322;2024-01-30T05:33:27;8.60;;;7.80;;
819;SDS011;392;48.838;2.322;2024-01-30T05:35:54;8.27;;;7.57;;
819;SDS011;392;48.838;2.322;2024-01-30T05:38:22;8.77;;;7.50;;
819;SDS011;392;48.838;2.322;2024-01-30T05:40:49;8.30;;;7.50;;
819;SDS011;392;48.838;2.322;2024-01-30T05:43:17;7.40;;;6.70;;
819;SDS011;392;48.838;2.322;2024-01-30T05:45:44;8.20;;;7.50;;
819;SDS011;392;48.838;2.322;2024-01-30T05:48:13;7.40;;;6.80;;
819;SDS011;392;48.838;2.322;2024-01-30T05:50:40;8.20;;;7.40;;
819;SDS011;392;48.838;2.322;2024-01-30T05:53:08;8.43;;;7.70;;
819;SDS011;392;48.838;2.322;2024-01-30T05:55:35;7.97;;;7.37;;
819;SDS011;392;48.838;2.322;2024-01-30T05:58:02;7.73;;;7.00;;
819;SDS011;392;48.838;2.322;2024-01-30T06:00:30;8.23;;;7.43;;
819;SDS011;392;48.838;2.322;2024-01-30T06:02:57;9.13;;;8.30;;
819;SDS011;392;48.838;2.322;2024-01-30T06:05:26;7.97;;;7.27;;
819;SDS011;392;48.838;2.322;2024-01-30T06:07:53;8.07;;;7.33;;
819;SDS011;392;48.838;2.322;2024-01-30T06:10:20;7.97;;;7.27;;
819;SDS011;392;48.838;2.322;2024-01-30T06:12:48;8.33;;;7.50;;
819;SDS011;392;48.838;2.322;2024-01-30T06:15:15;8.53;;;7.83;;
819;SDS011;392;48.838;2.322;2024-01-30T06:17:42;8.70;;;7.90;;
819;SDS011;392;48.838;2.322;2024-01-30T06:20:10;10.10;;;8.10;;
819;SDS011;392;48.838;2.322;2024-01-30T06:22:38;9.10;;;8.40;;
819;SDS011;392;48.838;2.322;2024-01-30T06:25:06;8.73;;;7.83;;
819;SDS011;392;48.838;2.322;2024-01-30T06:27:34;8.77;;;8.07;;
819;SDS011;392;48.838;2.322;2024-01-30T06:30:01;9.60;;;8.37;;
819;SDS011;392;48.838;2.322;2024-01-30T06:32:30;7.80;;;7.10;;
819;SDS011;392;48.838;2.322;2024-01-30T06:34:59;9.13;;;8.23;;
819;SDS011;392;48.838;2.322;2024-01-30T06:37:28;9.07;;;8.27;;
819;SDS011;392;48.838;2.322;2024-01-30T06:39:57;8.33;;;7.63;;
819;SDS011;392;48.838;2.322;2024-01-30T06:42:24;8.50;;;7.70;;
819;SDS011;392;48.838;2.322;2024-01-30T06:44:51;8.53;;;7.90;;
819;SDS011;392;48.838;2.322;2024-01-30T06:47:19;8.27;;;7.57;;
819;SDS011;392;48.838;2.322;2024-01-30T06:49:46;8.70;;;7.90;;
819;SDS011;392;48.838;2.322;2024-01-30T06:52:13;8.97;;;8.13;;
819;SDS011;392;48.838;2.322;2024-01-30T06:54:40;9.13;;;8.30;;
819;SDS011;392;48.838;2.322;2024-01-30T06:57:09;9.07;;;8.17;;
819;SDS011;392;48.838;2.322;2024-01-30T06:59:39;8.80;;;7.90;;
819;SDS011;392;48.838;2.322;2024-01-30T07:02:08;8.40;;;7.60;;
819;SDS011;392;48.838;2.322;2024-01-30T07:04:36;9.10;;;8.27;;
819;SDS011;392;48.838;2.322;2024-01-30T07:07:04;8.90;;;8.10;;
819;SDS011;392;48.838;2.322;2024-01-30T07:09:38;9.23;;;8.20;;
819;SDS011;392;48.838;2.322;2024-01-30T07:12:06;9.80;;;8.80;;
819;SDS011;392;48.838;2.322;2024-01-30T07:14:35;9.70;;;8.70;;
819;SDS011;392;48.838;2.322;2024-01-30T07:17:03;10.00;;;9.00;;
819;SDS011;392;48.838;2.322;2024-01-30T07:19:31;9.93;;;8.93;;
819;SDS011;392;48.838;2.322;2024-01-30T07:21:59;9.40;;;8.60;;
819;SDS011;392;48.838;2.322;2024-01-30T07:24:27;9.70;;;8.63;;
819;SDS011;392;48.838;2.322;2024-01-30T07:26:54;8.57;;;7.87;;
819;SDS011;392;48.838;2.322;2024-01-30T07:29:22;9.70;;;8.80;;
819;SDS011;392;48.838;2.322;2024-01-30T07:31:50;9.43;;;8.10;;
819;SDS011;392;48.838;2.322;2024-01-30T07:34:18;10.27;;;9.37;;
819;SDS011;392;48.838;2.322;2024-01-30T07:36:45;9.57;;;8.67;;
819;SDS011;392;48.838;2.322;2024-01-30T07:39:12;9.57;;;8.70;;
819;SDS011;392;48.838;2.322;2024-01-30T07:41:40;10.60;;;9.07;;
819;SDS011;392;48.838;2.322;2024-01-30T07:44:07;9.20;;;8.40;;
819;SDS011;392;48.838;2.322;2024-01-30T07:46:34;9.30;;;8.50;;
819;SDS011;392;48.838;2.322;2024-01-30T07:49:03;9.53;;;8.63;;
819;SDS011;392;48.838;2.322;2024-01-30T07:51:30;10.60;;;9.60;;
819;SDS011;392;48.838;2.322;2024-01-30T07:53:58;10.03;;;9.23;;
819;SDS011;392;48.838;2.322;2024-01-30T07:56:25;10.23;;;9.10;;
819;SDS011;392;48.838;2.322;2024-01-30T07:58:54;10.30;;;9.27;;
819;SDS011;392;48.838;2.322;2024-01-30T08:01:21;10.30;;;9.03;;
819;SDS011;392;48.838;2.322;2024-01-30T08:03:49;10.27;;;9.27;;
819;SDS011;392;48.838;2.322;2024-01-30T08:06:17;10.60;;;9.43;;
819;SDS011;392;48.838;2.322;2024-01-30T08:08:45;9.37;;;8.47;;
819;SDS011;392;48.838;2.322;2024-01-30T08:11:12;10.27;;;8.50;;
819;SDS011;392;48.838;2.322;2024-01-30T08:13:39;9.40;;;8.50;;
819;SDS011;392;48.838;2.322;2024-01-30T08:16:06;10.80;;;9.23;;
819;SDS011;392;48.838;2.322;2024-01-30T08:18:34;10.20;;;9.17;;
819;SDS011;392;48.838;2.322;2024-01-30T08:21:01;10.03;;;9.10;;
819;SDS011;392;48.838;2.322;2024-01-30T08:23:31;10.37;;;8.77;;
819;SDS011;392;48.838;2.322;2024-01-30T08:25:58;9.70;;;8.90;;
819;SDS011;392;48.838;2.322;2024-01-30T08:28:25;10.70;;;8.73;;
819;SDS011;392;48.838;2.322;2024-01-30T08:30:52;9.60;;;8.80;;
819;SDS011;392;48.838;2.322;2024-01-30T08:33:20;10.43;;;9.33;;
819;SDS011;392;48.838;2.322;2024-01-30T08:35:48;11.33;;;10.23;;
819;SDS011;392;48.838;2.322;2024-01-30T08:38:15;9.90;;;8.90;;
819;SDS011;392;48.838;2.322;2024-01-30T08:40:44;10.50;;;9.43;;
819;SDS011;392;48.838;2.322;2024-01-30T08:43:11;10.93;;;9.83;;
819;SDS011;392;48.838;2.322;2024-01-30T08:45:38;10.10;;;9.20;;
819;SDS011;392;48.838;2.322;2024-01-30T08:48:06;10.13;;;9.03;;
819;SDS011;392;48.838;2.322;2024-01-30T08:50:34;10.33;;;9.50;;
819;SDS011;392;48.838;2.322;2024-01-30T08:53:01;11.63;;;10.17;;
819;SDS011;392;48.838;2.322;2024-01-30T08:55:28;12.33;;;11.10;;
819;SDS011;392;48.838;2.322;2024-01-30T08:57:57;10.23;;;9.20;;
819;SDS011;392;48.838;2.322;2024-01-30T09:00:25;10.70;;;9.77;;
819;SDS011;392;48.838;2.322;2024-01-30T09:02:52;11.73;;;10.53;;
819;SDS011;392;48.838;2.322;2024-01-30T09:05:19;10.30;;;9.30;;
819;SDS011;392;48.838;2.322;2024-01-30T09:07:47;11.80;;;9.47;;
819;SDS011;392;48.838;2.322;2024-01-30T09:10:14;14.07;;;12.73;;
819;SDS011;392;48.838;2.322;2024-01-30T09:12:42;12.67;;;11.43;;
819;SDS011;392;48.838;2.322;2024-01-30T09:15:10;10.67;;;9.47;;
819;SDS011;392;48.838;2.322;2024-01-30T09:17:38;10.67;;;9.77;;
819;SDS011;392;48.838;2.322;2024-01-30T09:20:05;10.70;;;9.80;;
819;SDS011;392;48.838;2.322;2024-01-30T09:22:34;10.47;;;9.53;;
819;SDS011;392;48.838;2.322;2024-01-30T09:25:02;15.43;;;9.80;;
819;SDS011;392;48.838;2.322;2024-01-30T09:27:30;10.83;;;9.73;;
819;SDS011;392;48.838;2.322;2024-01-30T09:29:57;12.07;;;10.23;;
819;SDS011;392;48.838;2.322;2024-01-30T09:32:26;10.73;;;9.83;;
819;SDS011;392;48.838;2.322;2024-01-30T09:34:53;10.73;;;9.73;;
819;SDS011;392;48.838;2.322;2024-01-30T09:37:20;11.60;;;10.53;;
819;SDS011;392;48.838;2.322;2024-01-30T09:39:48;10.57;;;9.57;;
819;SDS011;392;48.838;2.322;2024-01-30T09:42:17;11.50;;;10.30;;
819;SDS011;392;48.838;2.322;2024-01-30T09:44:52;11.00;;;9.90;;
819;SDS011;392;48.838;2.322;2024-01-30T09:47:20;14.30;;;10.20;;
819;SDS011;392;48.838;2.322;2024-01-30T09:49:49;11.37;;;10.27;;
819;SDS011;392;48.838;2.322;2024-01-30T09:52:17;12.13;;;10.83;;
819;SDS011;392;48.838;2.322;2024-01-30T09:54:45;11.43;;;10.33;;
819;SDS011;392;48.838;2.322;2024-01-30T09:57:16;13.23;;;12.00;;
819;SDS011;392;48.838;2.322;2024-01-30T09:59:43;11.30;;;10.20;;
819;SDS011;392;48.838;2.322;2024-01-30T10:02:10;11.63;;;10.57;;
819;SDS011;392;48.838;2.322;2024-01-30T10:04:38;13.00;;;10.53;;
819;SDS011;392;48.838;2.322;2024-01-30T10:07:06;12.27;;;10.77;;
819;SDS011;392;48.838;2.322;2024-01-30T10:09:36;10.97;;;9.87;;
819;SDS011;392;48.838;2.322;2024-01-30T10:12:04;12.40;;;10.93;;
819;SDS011;392;48.838;2.322;2024-01-30T10:14:33;11.97;;;10.77;;
819;SDS011;392;48.838;2.322;2024-01-30T10:17:04;10.90;;;9.90;;
819;SDS011;392;48.838;2.322;2024-01-30T10:19:32;10.77;;;9.67;;
819;SDS011;392;48.838;2.322;2024-01-30T10:21:59;14.57;;;10.93;;
819;SDS011;392;48.838;2.322;2024-01-30T10:24:28;13.00;;;11.40;;
819;SDS011;392;48.838;2.322;2024-01-30T10:26:55;11.57;;;10.47;;
819;SDS011;392;48.838;2.322;2024-01-30T10:29:24;10.60;;;9.63;;
819;SDS011;392;48.838;2.322;2024-01-30T10:31:57;12.10;;;10.87;;
819;SDS011;392;48.838;2.322;2024-01-30T10:34:26;11.57;;;10.27;;
819;SDS011;392;48.838;2.322;2024-01-30T10:36:57;13.80;;;10.80;;
819;SDS011;392;48.838;2.322;2024-01-30T10:39:39;12.20;;;10.90;;
819;SDS011;392;48.838;2.322;2024-01-30T10:42:07;16.93;;;12.97;;
819;SDS011;392;48.838;2.322;2024-01-30T10:44:41;12.93;;;10.27;;
819;SDS011;392;48.838;2.322;2024-01-30T10:47:18;13.93;;;10.80;;
819;SDS011;392;48.838;2.322;2024-01-30T10:49:53;11.93;;;10.47;;
819;SDS011;392;48.838;2.322;2024-01-30T10:52:22;12.10;;;10.80;;
819;SDS011;392;48.838;2.322;2024-01-30T10:54:53;11.13;;;10.07;;
819;SDS011;392;48.838;2.322;2024-01-30T10:57:21;11.70;;;10.50;;
819;SDS011;392;48.838;2.322;2024-01-30T10:59:51;11.17;;;10.07;;
819;SDS011;392;48.838;2.322;2024-01-30T11:02:23;11.60;;;9.70;;
819;SDS011;392;48.838;2.322;2024-01-30T11:04:54;11.23;;;10.03;;
819;SDS011;392;48.838;2.322;2024-01-30T11:07:24;10.90;;;9.80;;
819;SDS011;392;48.838;2.322;2024-01-30T11:09:59;11.70;;;10.23;;
819;SDS011;392;48.838;2.322;2024-01-30T11:12:31;10.83;;;9.47;;
819;SDS011;392;48.838;2.322;2024-01-30T11:15:03;12.00;;;10.70;;
819;SDS011;392;48.838;2.322;2024-01-30T11:17:41;11.47;;;10.27;;
819;SDS011;392;48.838;2.322;2024-01-30T11:20:11;11.00;;;9.60;;
819;SDS011;392;48.838;2.322;2024-01-30T11:22:44;12.90;;;9.80;;
819;SDS011;392;48.838;2.322;2024-01-30T11:25:14;10.80;;;9.33;;
819;SDS011;392;48.838;2.322;2024-01-30T11:27:42;9.60;;;8.70;;
819;SDS011;392;48.838;2.322;2024-01-30T11:30:10;9.97;;;8.93;;
819;SDS011;392;48.838;2.322;2024-01-30T11:32:57;11.23;;;8.70;;
819;SDS011;392;48.838;2.322;2024-01-30T11:35:30;9.47;;;8.63;;
819;SDS011;392;48.838;2.322;2024-01-30T11:38:00;9.07;;;7.90;;
819;SDS011;392;48.838;2.322;2024-01-30T11:40:30;10.67;;;8.27;;
819;SDS011;392;48.838;2.322;2024-01-30T11:42:59;7.40;;;6.70;;
819;SDS011;392;48.838;2.322;2024-01-30T11:45:28;6.00;;;5.40;;
819;SDS011;392;48.838;2.322;2024-01-30T11:47:55;5.60;;;5.20;;
819;SDS011;392;48.838;2.322;2024-01-30T11:50:25;5.07;;;4.67;;
819;SDS011;392;48.838;2.322;2024-01-30T11:52:53;6.60;;;4.93;;
819;SDS011;392;48.838;2.322;2024-01-30T11:55:21;5.83;;;5.33;;
819;SDS011;392;48.838;2.322;2024-01-30T11:57:51;5.40;;;4.90;;
819;SDS011;392;48.838;2.322;2024-01-30T12:00:21;5.53;;;4.07;;
819;SDS011;392;48.838;2.322;2024-01-30T12:02:49;4.57;;;4.27;;
819;SDS011;392;48.838;2.322;2024-01-30T12:05:20;5.00;;;3.90;;
819;SDS011;392;48.838;2.322;2024-01-30T12:07:48;4.53;;;4.13;;
819;SDS011;392;48.838;2.322;2024-01-30T12:10:16;4.87;;;4.40;;
819;SDS011;392;48.838;2.322;2024-01-30T12:12:45;4.43;;;3.70;;
819;SDS011;392;48.838;2.322;2024-01-30T12:15:16;4.50;;;4.10;;
819;SDS011;392;48.838;2.322;2024-01-30T12:17:46;3.63;;;3.40;;
819;SDS011;392;48.838;2.322;2024-01-30T12:20:18;4.77;;;3.60;;
819;SDS011;392;48.838;2.322;2024-01-30T12:22:49;4.67;;;3.43;;
819;SDS011;392;48.838;2.322;2024-01-30T12:25:19;5.50;;;5.00;;
819;SDS011;392;48.838;2.322;2024-01-30T12:27:50;4.23;;;3.93;;
819;SDS011;392;48.838;2.322;2024-01-30T12:30:19;6.27;;;3.93;;
819;SDS011;392;48.838;2.322;2024-01-30T12:32:49;3.87;;;3.60;;
819;SDS011;392;48.838;2.322;2024-01-30T12:35:17;4.57;;;4.17;;
819;SDS011;392;48.838;2.322;2024-01-30T12:37:47;3.40;;;3.10;;
819;SDS011;392;48.838;2.322;2024-01-30T12:40:15;3.83;;;3.53;;
819;SDS011;392;48.838;2.322;2024-01-30T12:42:45;3.40;;;3.17;;
819;SDS011;392;48.838;2.322;2024-01-30T12:45:15;3.40;;;3.20;;
819;SDS011;392;48.838;2.322;2024-01-30T12:47:46;4.53;;;3.87;;
819;SDS011;392;48.838;2.322;2024-01-30T12:50:14;3.73;;;3.43;;
819;SDS011;392;48.838;2.322;2024-01-30T12:52:42;4.47;;;3.50;;
819;SDS011;392;48.838;2.322;2024-01-30T12:55:10;3.10;;;2.90;;
819;SDS011;392;48.838;2.322;2024-01-30T12:57:38;3.00;;;2.80;;
819;SDS011;392;48.838;2.322;2024-01-30T13:00:06;3.20;;;2.90;;
819;SDS011;392;48.838;2.322;2024-01-30T13:02:34;3.83;;;2.93;;
819;SDS011;392;48.838;2.322;2024-01-30T13:05:04;3.00;;;2.80;;
819;SDS011;392;48.838;2.322;2024-01-30T13:07:32;2.90;;;2.70;;
819;SDS011;392;48.838;2.322;2024-01-30T13:09:59;2.77;;;2.57;;
819;SDS011;392;48.838;2.322;2024-01-30T13:12:28;3.27;;;2.97;;
819;SDS011;392;48.838;2.322;2024-01-30T13:14:57;2.93;;;2.73;;
819;SDS011;392;48.838;2.322;2024-01-30T13:17:26;3.50;;;3.20;;
819;SDS011;392;48.838;2.322;2024-01-30T13:19:53;7.70;;;6.53;;
819;SDS011;392;48.838;2.322;2024-01-30T13:22:23;3.77;;;3.10;;
819;SDS011;392;48.838;2.322;2024-01-30T13:24:50;3.77;;;3.20;;
819;SDS011;392;48.838;2.322;2024-01-30T13:27:17;3.20;;;3.00;;
819;SDS011;392;48.838;2.322;2024-01-30T13:29:44;4.17;;;3.60;;
819;SDS011;392;48.838;2.322;2024-01-30T13:32:12;3.30;;;3.03;;
819;SDS011;392;48.838;2.322;2024-01-30T13:34:39;2.93;;;2.77;;
819;SDS011;392;48.838;2.322;2024-01-30T13:37:07;3.20;;;3.00;;
819;SDS011;392;48.838;2.322;2024-01-30T13:39:35;3.87;;;3.43;;
819;SDS011;392;48.838;2.322;2024-01-30T13:42:02;3.70;;;3.40;;
819;SDS011;392;48.838;2.322;2024-01-30T13:44:30;4.37;;;3.60;;
819;SDS011;392;48.838;2.322;2024-01-30T13:46:58;3.50;;;3.20;;
819;SDS011;392;48.838;2.322;2024-01-30T13:49:25;3.37;;;3.10;;
819;SDS011;392;48.838;2.322;2024-01-30T13:51:53;3.00;;;2.70;;
819;SDS011;392;48.838;2.322;2024-01-30T13:54:20;3.10;;;2.90;;
819;SDS011;392;48.838;2.322;2024-01-30T13:56:48;4.07;;;3.43;;
819;SDS011;392;48.838;2.322;2024-01-30T13:59:16;3.13;;;2.93;;
819;SDS011;392;48.838;2.322;2024-01-30T14:01:48;4.50;;;3.20;;
819;SDS011;392;48.838;2.322;2024-01-30T14:04:16;4.87;;;2.97;;
819;SDS011;392;48.838;2.322;2024-01-30T14:06:43;8.80;;;8.00;;
819;SDS011;392;48.838;2.322;2024-01-30T14:09:10;2.50;;;2.40;;
819;SDS011;392;48.838;2.322;2024-01-30T14:11:40;2.33;;;2.13;;
819;SDS011;392;48.838;2.322;2024-01-30T14:14:09;2.70;;;2.50;;
819;SDS011;392;48.838;2.322;2024-01-30T14:16:37;4.93;;;2.77;;
819;SDS011;392;48.838;2.322;2024-01-30T14:19:04;4.07;;;2.80;;
819;SDS011;392;48.838;2.322;2024-01-30T14:21:32;2.37;;;2.27;;
819;SDS011;392;48.838;2.322;2024-01-30T14:23:59;2.80;;;2.13;;
819;SDS011;392;48.838;2.322;2024-01-30T14:26:26;2.70;;;2.50;;
819;SDS011;392;48.838;2.322;2024-01-30T14:28:54;2.17;;;2.13;;
819;SDS011;392;48.838;2.322;2024-01-30T14:31:22;2.10;;;2.00;;
819;SDS011;392;48.838;2.322;2024-01-30T14:33:50;1.80;;;1.70;;
819;SDS011;392;48.838;2.322;2024-01-30T14:36:17;2.23;;;1.80;;
819;SDS011;392;48.838;2.322;2024-01-30T14:38:45;1.90;;;1.80;;
819;SDS011;392;48.838;2.322;2024-01-30T14:41:12;2.90;;;2.70;;
819;SDS011;392;48.838;2.322;2024-01-30T14:43:40;2.30;;;2.10;;
819;SDS011;392;48.838;2.322;2024-01-30T14:46:08;2.70;;;2.30;;
819;SDS011;392;48.838;2.322;2024-01-30T14:48:36;2.00;;;1.90;;
819;SDS011;392;48.838;2.322;2024-01-30T14:51:04;2.17;;;2.07;;
819;SDS011;392;48.838;2.322;2024-01-30T14:53:31;2.10;;;1.73;;
819;SDS011;392;48.838;2.322;2024-01-30T14:55:58;3.13;;;1.70;;
819;SDS011;392;48.838;2.322;2024-01-30T14:58:28;2.33;;;2.23;;
819;SDS011;392;48.838;2.322;2024-01-30T15:00:55;3.00;;;2.00;;
819;SDS011;392;48.838;2.322;2024-01-30T15:03:22;2.73;;;1.87;;
819;SDS011;392;48.838;2.322;2024-01-30T15:05:51;2.23;;;2.13;;
819;SDS011;392;48.838;2.322;2024-01-30T15:08:20;1.60;;;1.57;;
819;SDS011;392;48.838;2.322;2024-01-30T15:10:47;1.60;;;1.50;;
819;SDS011;392;48.838;2.322;2024-01-30T15:13:16;1.80;;;1.27;;
819;SDS011;392;48.838;2.322;2024-01-30T15:15:43;2.83;;;2.63;;
819;SDS011;392;48.838;2.322;2024-01-30T15:18:10;1.73;;;1.63;;
819;SDS011;392;48.838;2.322;2024-01-30T15:20:38;1.77;;;1.77;;
819;SDS011;392;48.838;2.322;2024-01-30T15:23:06;1.50;;;1.40;;
819;SDS011;392;48.838;2.322;2024-01-30T15:25:33;1.70;;;1.60;;
819;SDS011;392;48.838;2.322;2024-01-30T15:28:01;2.70;;;2.50;;
819;SDS011;392;48.838;2.322;2024-01-30T15:30:28;1.77;;;1.67;;
819;SDS011;392;48.838;2.322;2024-01-30T15:32:55;1.30;;;1.30;;
819;SDS011;392;48.838;2.322;2024-01-30T15:35:22;3.17;;;2.70;;
819;SDS011;392;48.838;2.322;2024-01-30T15:37:50;1.40;;;1.40;;